ADDS METAR Data INFO
IDs: Format: Raw Decoded Include TAF

Data at: 1316 UTC 19 Jul 2018

KRCR 191255Z AUTO 12005KT 10SM CLR 22/15 A3005 RMK AO2
KRCR 191235Z AUTO 12005KT 10SM CLR 21/15 A3005 RMK AO2
KRCR 191215Z AUTO 12004KT 10SM CLR 21/15 A3005 RMK AO2
KRCR 191155Z AUTO 12003KT 10SM CLR 19/15 A3005 RMK AO2
KRCR 191135Z AUTO 10004KT 10SM CLR 17/15 A3004 RMK AO2
KRCR 191115Z AUTO 10003KT 10SM CLR 16/13 A3004 RMK AO2
KRCR 191055Z AUTO 00000KT 10SM CLR 15/13 A3004 RMK AO2
KRCR 191035Z AUTO 08003KT 10SM CLR 16/13 A3004 RMK AO2
KRCR 191015Z AUTO 00000KT 10SM CLR 15/13 A3004 RMK AO2
KRCR 190955Z AUTO 00000KT 10SM CLR 15/13 A3004 RMK AO2
KRCR 190935Z AUTO 00000KT 10SM CLR 15/13 A3004 RMK AO2
KRCR 190915Z AUTO 00000KT 10SM CLR 15/13 A3004 RMK AO2
KRCR 190855Z AUTO 00000KT 10SM CLR 16/13 A3004 RMK AO2
KRCR 190835Z AUTO 00000KT 10SM CLR 16/14 A3005 RMK AO2
KRCR 190815Z AUTO 00000KT 10SM CLR 16/13 A3005 RMK AO2
KRCR 190755Z AUTO 00000KT 10SM CLR 16/14 A3004 RMK AO2
KRCR 190735Z AUTO 00000KT 10SM CLR 16/13 A3005 RMK AO2
KRCR 190715Z AUTO 00000KT 10SM CLR 17/14 A3005 RMK AO2
KRCR 190655Z AUTO 00000KT 10SM CLR 17/14 A3005 RMK AO2
KRCR 190635Z AUTO 00000KT 10SM CLR 17/14 A3005 RMK AO2
KRCR 190615Z AUTO 00000KT 10SM CLR 17/14 A3005 RMK AO2
KRCR 190555Z AUTO 00000KT 10SM CLR 18/14 A3005 RMK AO2
KRCR 190535Z AUTO 00000KT 10SM CLR 18/14 A3005 RMK AO2
KRCR 190515Z AUTO 00000KT 10SM CLR 18/14 A3006 RMK AO2
KRCR 190455Z AUTO 01003KT 10SM CLR 19/14 A3005 RMK AO2
KRCR 190435Z AUTO 00000KT 10SM CLR 20/14 A3006 RMK AO2
KRCR 190415Z AUTO 00000KT 10SM CLR 20/14 A3006 RMK AO2
KRCR 190355Z AUTO 35003KT 10SM CLR 20/14 A3006 RMK AO2
KRCR 190335Z AUTO 00000KT 10SM CLR 20/14 A3006 RMK AO2
KRCR 190315Z AUTO 00000KT 10SM CLR 21/14 A3006 RMK AO2
KRCR 190255Z AUTO 00000KT 10SM CLR 21/14 A3006 RMK AO2
KRCR 190235Z AUTO 34004KT 10SM CLR 21/14 A3005 RMK AO2
KRCR 190215Z AUTO 33004KT 10SM SCT065 22/14 A3005 RMK AO2
KRCR 190155Z AUTO 33004KT 10SM SCT065 22/14 A3005 RMK AO2
KRCR 190135Z AUTO 36004KT 10SM SCT070 23/13 A3004 RMK AO2
KRCR 190115Z AUTO 00000KT 10SM SCT070 24/13 A3003 RMK AO2
KRCR 190055Z AUTO 00000KT 10SM CLR 26/12 A3004 RMK AO2
KRCR 190035Z AUTO 00000KT 10SM CLR 26/13 A3003 RMK AO2
KRCR 190015Z AUTO 00000KT 10SM CLR 27/12 A3003 RMK AO2
KRCR 182355Z AUTO 00000KT 10SM CLR 27/11 A3004 RMK AO2
KRCR 182335Z AUTO 00000KT 10SM CLR 27/11 A3003 RMK AO2
KRCR 182315Z AUTO 00000KT 10SM CLR 27/11 A3003 RMK AO2
KRCR 182255Z AUTO 00000KT 10SM CLR 27/11 A3003 RMK AO2
KRCR 182235Z AUTO 00000KT 10SM SCT065 27/11 A3004 RMK AO2
KRCR 182215Z AUTO 00000KT 10SM BKN065 27/10 A3004 RMK AO2
KRCR 182155Z AUTO 23003KT 10SM BKN065 27/11 A3005 RMK AO2
KRCR 182135Z AUTO 27004KT 10SM SCT065 29/10 A3005 RMK AO2
KRCR 182115Z AUTO 28006KT 10SM SCT065 30/11 A3006 RMK AO2
KRCR 182055Z AUTO 28006KT 10SM CLR 29/11 A3006 RMK AO2
KRCR 182035Z AUTO 28003KT 10SM CLR 29/11 A3007 RMK AO2
KRCR 182015Z AUTO 00000KT 10SM CLR 27/10 A3007 RMK AO2
KRCR 181955Z AUTO 00000KT 10SM SCT060 27/11 A3008 RMK AO2
KRCR 181935Z AUTO 18003KT 10SM SCT060 29/10 A3008 RMK AO2
KRCR 181915Z AUTO 00000KT 10SM CLR 29/11 A3009 RMK AO2
KRCR 181855Z AUTO 00000KT 10SM CLR 28/11 A3009 RMK AO2
KRCR 181835Z AUTO 00000KT 10SM CLR 27/11 A3009 RMK AO2
KRCR 181815Z AUTO 00000KT 10SM CLR 27/11 A3009 RMK AO2
KRCR 181755Z AUTO 03004KT 10SM CLR 28/12 A3010 RMK AO2
KRCR 181735Z AUTO 08004KT 10SM CLR 28/13 A3010 RMK AO2
KRCR 181715Z AUTO 06006KT 10SM SCT047 27/13 A3010 RMK AO2
KRCR 181655Z AUTO 01006KT 10SM SCT047 27/13 A3010 RMK AO2
KRCR 181635Z AUTO 03003KT 10SM SCT043 27/12 A3011 RMK AO2
KRCR 181615Z AUTO 05007KT 010V080 10SM SCT031 SCT041 26/13 A3011 RMK AO2
KRCR 181555Z AUTO 00000KT 10SM SCT031 SCT039 26/15 A3012 RMK AO2
KRCR 181535Z AUTO 34005KT 10SM CLR 25/16 A3012 RMK AO2
KRCR 181515Z AUTO 02004KT 10SM CLR 25/16 A3012 RMK AO2
KRCR 181455Z AUTO 00000KT 10SM CLR 23/16 A3011 RMK AO2
KRCR 181435Z AUTO 07004KT 10SM CLR 22/16 A3011 RMK AO2
KRCR 181415Z AUTO 00000KT 10SM CLR 22/16 A3012 RMK AO2
KRCR 181355Z AUTO 04004KT 10SM CLR 21/15 A3012 RMK AO2
KRCR 181335Z AUTO 05004KT 10SM CLR 20/15 A3012 RMK AO2
KRCR 181315Z AUTO 02004KT 10SM CLR 20/15 A3012 RMK AO2
KRCR 181255Z AUTO 03004KT 10SM CLR 18/14 A3012 RMK AO2
KRCR 181235Z AUTO 02004KT 10SM CLR 18/13 A3012 RMK AO2
KRCR 181215Z AUTO 01004KT 10SM CLR 17/13 A3012 RMK AO2
KRCR 181155Z AUTO 36003KT 10SM CLR 16/13 A3012 RMK AO2
KRCR 181135Z AUTO 36003KT 10SM CLR 16/13 A3012 RMK AO2
KRCR 181115Z AUTO 35003KT 10SM CLR 15/13 A3011 RMK AO2
KRCR 181055Z AUTO 00000KT 10SM CLR 15/12 A3011 RMK AO2
KRCR 181035Z AUTO 00000KT 10SM CLR 15/12 A3011 RMK AO2
KRCR 181015Z AUTO 00000KT 10SM CLR 15/12 A3010 RMK AO2
KRCR 180955Z AUTO 00000KT 10SM CLR 15/12 A3010 RMK AO2
KRCR 180935Z AUTO 00000KT 10SM CLR 15/12 A3010 RMK AO2
KRCR 180915Z AUTO 00000KT 10SM CLR 15/12 A3010 RMK AO2
KRCR 180855Z AUTO 33003KT 10SM CLR 15/12 A3010 RMK AO2
KRCR 180835Z AUTO 00000KT 10SM CLR 15/12 A3010 RMK AO2
KRCR 180815Z AUTO 33003KT 10SM CLR 15/12 A3009 RMK AO2
KRCR 180755Z AUTO 00000KT 10SM CLR 15/12 A3010 RMK AO2
KRCR 180735Z AUTO 00000KT 10SM CLR 15/12 A3010 RMK AO2
KRCR 180715Z AUTO 00000KT 10SM CLR 16/12 A3010 RMK AO2
KRCR 180655Z AUTO 30003KT 10SM CLR 16/12 A3010 RMK AO2
KRCR 180635Z AUTO 32003KT 10SM CLR 16/12 A3010 RMK AO2
KRCR 180615Z AUTO 00000KT 10SM CLR 17/12 A3010 RMK AO2
KRCR 180555Z AUTO 33003KT 10SM CLR 17/12 A3010 RMK AO2
KRCR 180535Z AUTO 35003KT 10SM CLR 17/12 A3010 RMK AO2
KRCR 180515Z AUTO 33003KT 10SM CLR 17/12 A3010 RMK AO2
KRCR 180455Z AUTO 32003KT 10SM CLR 17/12 A3010 RMK AO2
KRCR 180435Z AUTO 00000KT 10SM CLR 17/11 A3010 RMK AO2
KRCR 180415Z AUTO 00000KT 10SM CLR 18/11 A3010 RMK AO2
KRCR 180355Z AUTO 32003KT 10SM CLR 18/11 A3010 RMK AO2
KRCR 180335Z AUTO 32003KT 10SM CLR 18/11 A3010 RMK AO2
KRCR 180315Z AUTO 00000KT 10SM CLR 18/11 A3009 RMK AO2
KRCR 180255Z AUTO 35003KT 10SM CLR 19/11 A3009 RMK AO2
KRCR 180235Z AUTO 00000KT 10SM CLR 20/11 A3008 RMK AO2
KRCR 180215Z AUTO 35004KT 10SM CLR 20/11 A3008 RMK AO2
KRCR 180155Z AUTO 35005KT 10SM CLR 21/11 A3007 RMK AO2
KRCR 180135Z AUTO 34004KT 10SM CLR 21/10 A3007 RMK AO2